createdAt,value
2022-12-28T00:00:44.108Z,1012.92
2022-12-28T00:01:43.952Z,1012.91
2022-12-28T00:02:43.240Z,1012.88
2022-12-28T00:03:43.141Z,1012.88
2022-12-28T00:04:43.266Z,1012.83
2022-12-28T00:05:43.111Z,1012.82
2022-12-28T00:06:43.129Z,1012.85
2022-12-28T00:07:43.048Z,1012.80
2022-12-28T00:08:43.058Z,1012.80
2022-12-28T00:09:43.030Z,1012.80
2022-12-28T00:11:07.960Z,1012.78
2022-12-28T00:11:44.108Z,1012.83
2022-12-28T00:12:42.983Z,1012.81
2022-12-28T00:13:42.981Z,1012.79
2022-12-28T00:14:42.961Z,1012.72
2022-12-28T00:15:43.223Z,1012.74
2022-12-28T00:16:43.107Z,1012.74
2022-12-28T00:17:42.960Z,1012.75
2022-12-28T00:18:42.927Z,1012.68
2022-12-28T00:19:42.880Z,1012.70
2022-12-28T00:20:42.956Z,1012.66
2022-12-28T00:21:42.877Z,1012.71
2022-12-28T00:22:42.862Z,1012.66
2022-12-28T00:23:42.902Z,1012.63
2022-12-28T00:24:42.821Z,1012.62
2022-12-28T00:25:42.836Z,1012.61
2022-12-28T00:26:42.940Z,1012.55
2022-12-28T00:27:43.985Z,1012.56
2022-12-28T00:28:42.776Z,1012.53
2022-12-28T00:29:42.754Z,1012.59
2022-12-28T00:30:42.867Z,1012.56
2022-12-28T00:31:42.814Z,1012.55
2022-12-28T00:32:42.747Z,1012.48
2022-12-28T00:33:42.745Z,1012.44
2022-12-28T00:34:43.824Z,1012.46
2022-12-28T00:35:42.687Z,1012.43
2022-12-28T00:37:08.350Z,1012.35
2022-12-28T00:37:43.691Z,1012.34
2022-12-28T00:38:42.677Z,1012.31
2022-12-28T00:39:42.660Z,1012.37
2022-12-28T00:40:42.651Z,1012.26
2022-12-28T00:41:42.606Z,1012.30
2022-12-28T00:42:43.536Z,1012.30
2022-12-28T00:43:42.628Z,1012.28
2022-12-28T00:44:42.597Z,1012.23
2022-12-28T00:45:42.803Z,1012.19
2022-12-28T00:46:42.557Z,1012.11
2022-12-28T00:47:42.533Z,1012.06
2022-12-28T00:48:42.512Z,1012.08
2022-12-28T00:49:42.535Z,1012.06
2022-12-28T00:50:42.561Z,1012.02
2022-12-28T00:51:42.478Z,1011.96
2022-12-28T00:52:42.500Z,1011.93
2022-12-28T00:53:42.482Z,1011.94
2022-12-28T00:54:42.545Z,1011.93
2022-12-28T00:55:42.448Z,1011.97
2022-12-28T00:56:42.576Z,1011.84
2022-12-28T00:57:42.408Z,1011.86
2022-12-28T00:58:42.428Z,1011.81
2022-12-28T00:59:42.448Z,1011.80
2022-12-28T01:00:42.401Z,1011.84
2022-12-28T01:01:42.479Z,1011.80
2022-12-28T01:02:42.388Z,1011.77
2022-12-28T01:03:42.319Z,1011.71
2022-12-28T01:04:43.226Z,1011.76
2022-12-28T01:05:42.330Z,1011.76
2022-12-28T01:06:42.306Z,1011.72
2022-12-28T01:07:42.298Z,1011.71
2022-12-28T01:08:43.239Z,1011.75
2022-12-28T01:09:42.272Z,1011.73
2022-12-28T01:10:42.266Z,1011.72
2022-12-28T01:11:42.275Z,1011.71
2022-12-28T01:12:42.260Z,1011.70
2022-12-28T01:13:42.176Z,1011.68
2022-12-28T01:14:42.186Z,1011.65
2022-12-28T01:15:42.166Z,1011.65
2022-12-28T01:16:42.249Z,1011.67
2022-12-28T01:17:42.392Z,1011.59
2022-12-28T01:18:42.441Z,1011.67
2022-12-28T01:19:42.212Z,1011.62
2022-12-28T01:20:42.096Z,1011.56
2022-12-28T01:21:42.903Z,1011.51
2022-12-28T01:22:42.298Z,1011.56
2022-12-28T01:23:42.087Z,1011.60
2022-12-28T01:24:42.059Z,1011.57
2022-12-28T01:25:42.034Z,1011.62
2022-12-28T01:26:42.041Z,1011.53
2022-12-28T01:27:42.021Z,1011.48
2022-12-28T01:28:42.020Z,1011.44
2022-12-28T01:29:43.161Z,1011.42
2022-12-28T01:30:41.989Z,1011.42
2022-12-28T01:31:41.999Z,1011.39
2022-12-28T01:32:41.988Z,1011.42
2022-12-28T01:33:41.962Z,1011.37
2022-12-28T01:34:42.899Z,1011.39
2022-12-28T01:35:42.023Z,1011.38
2022-12-28T01:36:41.899Z,1011.31
2022-12-28T01:37:42.410Z,1011.36
2022-12-28T01:38:41.945Z,1011.38
2022-12-28T01:39:41.869Z,1011.34
2022-12-28T01:40:41.919Z,1011.35
2022-12-28T01:41:41.895Z,1011.29
2022-12-28T01:42:41.845Z,1011.28
2022-12-28T01:43:41.811Z,1011.27
2022-12-28T01:44:41.821Z,1011.21
2022-12-28T01:45:41.916Z,1011.25
2022-12-28T01:46:41.910Z,1011.23
2022-12-28T01:47:41.810Z,1011.22
2022-12-28T01:48:41.734Z,1011.14
2022-12-28T01:49:41.818Z,1011.17
2022-12-28T01:50:41.705Z,1011.13
2022-12-28T01:51:41.729Z,1011.11
2022-12-28T01:52:41.774Z,1011.04
2022-12-28T01:53:41.713Z,1011.00
2022-12-28T01:54:41.702Z,1010.95
2022-12-28T01:55:41.704Z,1010.99
2022-12-28T01:56:41.655Z,1010.93
2022-12-28T01:57:41.738Z,1010.95
2022-12-28T01:58:42.364Z,1010.94
2022-12-28T01:59:41.610Z,1010.86
2022-12-28T02:00:41.640Z,1010.85
2022-12-28T02:01:41.720Z,1010.88
2022-12-28T02:02:41.757Z,1010.86
2022-12-28T02:03:41.649Z,1010.84
2022-12-28T02:04:41.571Z,1010.82
2022-12-28T02:05:41.535Z,1010.75
2022-12-28T02:06:41.532Z,1010.76
2022-12-28T02:07:41.521Z,1010.77
2022-12-28T02:08:41.521Z,1010.73
2022-12-28T02:09:41.464Z,1010.69
2022-12-28T02:10:45.822Z,1010.63
2022-12-28T02:11:41.486Z,1010.58
2022-12-28T02:12:41.633Z,1010.64
2022-12-28T02:13:41.712Z,1010.64
2022-12-28T02:14:41.411Z,1010.53
2022-12-28T02:15:41.404Z,1010.58
2022-12-28T02:16:41.413Z,1010.61
2022-12-28T02:17:41.397Z,1010.57
2022-12-28T02:18:41.380Z,1010.58
2022-12-28T02:19:41.388Z,1010.54
2022-12-28T02:20:41.366Z,1010.49
2022-12-28T02:21:41.307Z,1010.42
2022-12-28T02:22:41.311Z,1010.46
2022-12-28T02:23:41.323Z,1010.43
2022-12-28T02:24:41.351Z,1010.38
2022-12-28T02:25:42.265Z,1010.39
2022-12-28T02:26:41.248Z,1010.41
2022-12-28T02:27:41.354Z,1010.31
2022-12-28T02:28:41.239Z,1010.28
2022-12-28T02:29:41.667Z,1010.24
2022-12-28T02:30:41.291Z,1010.22
2022-12-28T02:31:41.177Z,1010.22
2022-12-28T02:32:41.181Z,1010.09
2022-12-28T02:33:41.208Z,1010.14
2022-12-28T02:34:41.268Z,1010.11
2022-12-28T02:35:41.127Z,1010.11
2022-12-28T02:36:41.138Z,1010.12
2022-12-28T02:37:41.119Z,1010.04
2022-12-28T02:38:41.127Z,1010.01
2022-12-28T02:39:41.125Z,1009.99
2022-12-28T02:40:41.970Z,1009.91
2022-12-28T02:41:41.064Z,1009.91
2022-12-28T02:42:41.048Z,1009.92
2022-12-28T02:43:41.017Z,1009.88
2022-12-28T02:44:41.020Z,1009.81
2022-12-28T02:45:41.138Z,1009.86
2022-12-28T02:46:41.044Z,1009.70
2022-12-28T02:47:40.991Z,1009.71
2022-12-28T02:48:42.229Z,1009.72
2022-12-28T02:49:40.984Z,1009.77
2022-12-28T02:50:40.968Z,1009.78
2022-12-28T02:51:40.950Z,1009.75
2022-12-28T02:52:41.837Z,1009.76
2022-12-28T02:53:41.008Z,1009.66
2022-12-28T02:54:40.907Z,1009.58
2022-12-28T02:55:40.952Z,1009.65
2022-12-28T02:56:40.888Z,1009.56
2022-12-28T02:57:41.012Z,1009.57
2022-12-28T02:58:40.860Z,1009.55
2022-12-28T02:59:41.743Z,1009.59
2022-12-28T03:00:40.862Z,1009.60
2022-12-28T03:01:40.967Z,1009.49
2022-12-28T03:02:40.922Z,1009.49
2022-12-28T03:03:41.807Z,1009.53
2022-12-28T03:04:40.788Z,1009.58
2022-12-28T03:05:41.621Z,1009.51
2022-12-28T03:06:41.529Z,1009.53
2022-12-28T03:07:40.765Z,1009.53
2022-12-28T03:08:40.761Z,1009.54
2022-12-28T03:09:40.731Z,1009.54
2022-12-28T03:10:40.676Z,1009.57
2022-12-28T03:11:40.701Z,1009.54
2022-12-28T03:12:40.732Z,1009.48
2022-12-28T03:13:40.640Z,1009.49
2022-12-28T03:14:40.688Z,1009.49
2022-12-28T03:15:40.716Z,1009.40
2022-12-28T03:16:40.734Z,1009.52
2022-12-28T03:17:40.591Z,1009.42
2022-12-28T03:18:41.542Z,1009.49
2022-12-28T03:19:40.729Z,1009.45
2022-12-28T03:20:40.544Z,1009.48
2022-12-28T03:21:40.550Z,1009.44
2022-12-28T03:22:40.546Z,1009.49
2022-12-28T03:23:41.437Z,1009.46
2022-12-28T03:24:40.645Z,1009.45
2022-12-28T03:25:40.512Z,1009.41
2022-12-28T03:26:40.493Z,1009.40
2022-12-28T03:27:40.476Z,1009.40
2022-12-28T03:28:41.460Z,1009.37
2022-12-28T03:29:40.596Z,1009.37
2022-12-28T03:30:40.675Z,1009.31
2022-12-28T03:31:40.403Z,1009.33
2022-12-28T03:32:40.404Z,1009.30
2022-12-28T03:33:40.493Z,1009.26
2022-12-28T03:34:40.373Z,1009.30
2022-12-28T03:35:40.403Z,1009.25
2022-12-28T03:36:40.652Z,1009.20
2022-12-28T03:37:41.812Z,1009.15
2022-12-28T03:38:40.341Z,1009.17
2022-12-28T03:39:40.322Z,1009.17
2022-12-28T03:40:40.367Z,1009.12
2022-12-28T03:41:41.145Z,1009.09
2022-12-28T03:42:40.266Z,1009.03
2022-12-28T03:43:40.534Z,1009.00
2022-12-28T03:44:40.320Z,1008.99
2022-12-28T03:45:46.457Z,1008.94
2022-12-28T03:46:41.237Z,1008.96
2022-12-28T03:47:40.212Z,1008.88
2022-12-28T03:48:40.186Z,1008.91
2022-12-28T03:49:40.975Z,1008.85
2022-12-28T03:50:40.319Z,1008.81
2022-12-28T03:51:40.154Z,1008.85
2022-12-28T03:52:41.088Z,1008.78
2022-12-28T03:53:40.306Z,1008.76
2022-12-28T03:54:40.183Z,1008.78
2022-12-28T03:55:40.125Z,1008.82
2022-12-28T03:56:40.124Z,1008.69
2022-12-28T03:57:40.349Z,1008.74
2022-12-28T03:58:40.048Z,1008.68
2022-12-28T03:59:40.057Z,1008.70
2022-12-28T04:00:40.126Z,1008.70
2022-12-28T04:01:40.185Z,1008.71
2022-12-28T04:02:41.419Z,1008.72
2022-12-28T04:03:40.105Z,1008.69
2022-12-28T04:04:40.027Z,1008.76
2022-12-28T04:05:40.023Z,1008.79
2022-12-28T04:06:39.996Z,1008.75
2022-12-28T04:07:40.786Z,1008.77
2022-12-28T04:08:39.966Z,1008.73
2022-12-28T04:09:41.117Z,1008.64
2022-12-28T04:10:40.629Z,1008.60
2022-12-28T04:11:39.946Z,1008.61
2022-12-28T04:12:39.901Z,1008.63
2022-12-28T04:13:39.878Z,1008.54
2022-12-28T04:14:40.628Z,1008.57
2022-12-28T04:15:39.924Z,1008.59
2022-12-28T04:16:39.950Z,1008.62
2022-12-28T04:17:39.970Z,1008.49
2022-12-28T04:18:39.867Z,1008.51
2022-12-28T04:19:40.661Z,1008.52
2022-12-28T04:20:40.056Z,1008.47
2022-12-28T04:21:40.080Z,1008.45
2022-12-28T04:22:39.929Z,1008.52
2022-12-28T04:23:39.775Z,1008.41
2022-12-28T04:24:39.718Z,1008.39
2022-12-28T04:25:39.729Z,1008.39
2022-12-28T04:26:39.717Z,1008.32
2022-12-28T04:27:39.728Z,1008.25
2022-12-28T04:28:39.872Z,1008.23
2022-12-28T04:29:39.772Z,1008.17
2022-12-28T04:30:40.687Z,1008.15
2022-12-28T04:31:39.684Z,1008.10
2022-12-28T04:32:40.434Z,1008.14
2022-12-28T04:33:39.629Z,1008.10
2022-12-28T04:34:44.740Z,1008.06
2022-12-28T04:35:40.641Z,1008.06
2022-12-28T04:36:39.577Z,1008.10
2022-12-28T04:37:39.585Z,1008.05
2022-12-28T04:38:39.996Z,1008.07
2022-12-28T04:39:55.242Z,1007.99
2022-12-28T04:40:40.537Z,1007.96
2022-12-28T04:41:39.513Z,1007.89
2022-12-28T04:42:39.493Z,1007.85
2022-12-28T04:43:40.413Z,1007.77
2022-12-28T04:44:40.254Z,1007.73
2022-12-28T04:45:40.726Z,1007.67
2022-12-28T04:46:39.538Z,1007.73
2022-12-28T04:47:39.435Z,1007.66
2022-12-28T04:48:40.027Z,1007.68
2022-12-28T04:49:39.443Z,1007.62
2022-12-28T04:50:39.414Z,1007.57
2022-12-28T04:51:39.373Z,1007.55
2022-12-28T04:52:39.390Z,1007.48
2022-12-28T04:53:39.579Z,1007.48
2022-12-28T04:54:39.459Z,1007.44
2022-12-28T04:55:39.333Z,1007.48
2022-12-28T04:56:39.319Z,1007.45
2022-12-28T04:57:39.310Z,1007.38
2022-12-28T04:58:39.535Z,1007.40
2022-12-28T04:59:39.316Z,1007.42
2022-12-28T05:00:39.491Z,1007.51
2022-12-28T05:01:39.524Z,1007.46
2022-12-28T05:02:40.719Z,1007.45
2022-12-28T05:03:39.256Z,1007.37
2022-12-28T05:04:39.247Z,1007.35
2022-12-28T05:05:39.361Z,1007.27
2022-12-28T05:06:39.278Z,1007.28
2022-12-28T05:07:39.153Z,1007.26
2022-12-28T05:08:39.188Z,1007.26
2022-12-28T05:09:39.154Z,1007.21
2022-12-28T05:10:40.107Z,1007.16
2022-12-28T05:11:39.260Z,1007.16
2022-12-28T05:12:39.176Z,1007.14
2022-12-28T05:13:39.908Z,1007.09
2022-12-28T05:14:39.082Z,1007.13
2022-12-28T05:15:39.069Z,1007.09
2022-12-28T05:16:39.154Z,1007.08
2022-12-28T05:17:39.096Z,1007.00
2022-12-28T05:18:39.071Z,1007.10
2022-12-28T05:19:39.070Z,1007.03
2022-12-28T05:20:39.140Z,1007.03
2022-12-28T05:21:39.830Z,1007.07
2022-12-28T05:22:41.075Z,1007.01
2022-12-28T05:23:39.070Z,1007.00
2022-12-28T05:24:38.965Z,1006.99
2022-12-28T05:25:38.949Z,1006.96
2022-12-28T05:26:40.427Z,1006.98
2022-12-28T05:27:38.920Z,1006.94
2022-12-28T05:28:39.039Z,1006.89
2022-12-28T05:29:38.904Z,1006.94
2022-12-28T05:30:38.887Z,1006.90
2022-12-28T05:31:38.920Z,1006.85
2022-12-28T05:32:38.872Z,1006.86
2022-12-28T05:33:38.839Z,1006.82
2022-12-28T05:34:38.902Z,1006.82
2022-12-28T05:35:38.895Z,1006.82
2022-12-28T05:36:38.926Z,1006.77
2022-12-28T05:37:38.802Z,1006.77
2022-12-28T05:38:38.804Z,1006.76
2022-12-28T05:39:38.832Z,1006.78
2022-12-28T05:40:38.800Z,1006.76
2022-12-28T05:41:38.889Z,1006.66
2022-12-28T05:42:38.757Z,1006.74
2022-12-28T05:43:38.704Z,1006.73
2022-12-28T05:44:38.739Z,1006.68
2022-12-28T05:45:38.676Z,1006.59
2022-12-28T05:46:38.778Z,1006.61
2022-12-28T05:47:38.694Z,1006.59
2022-12-28T05:48:38.921Z,1006.59
2022-12-28T05:49:38.822Z,1006.52
2022-12-28T05:50:38.601Z,1006.56
2022-12-28T05:51:40.049Z,1006.55
2022-12-28T05:52:38.985Z,1006.55
2022-12-28T05:53:38.607Z,1006.51
2022-12-28T05:54:38.621Z,1006.49
2022-12-28T05:55:38.551Z,1006.48
2022-12-28T05:56:39.547Z,1006.50
2022-12-28T05:57:38.581Z,1006.42
2022-12-28T05:58:38.577Z,1006.44
2022-12-28T05:59:38.530Z,1006.47
2022-12-28T06:00:38.522Z,1006.49
2022-12-28T06:01:38.738Z,1006.47
2022-12-28T06:02:38.784Z,1006.42
2022-12-28T06:03:38.704Z,1006.45
2022-12-28T06:04:38.443Z,1006.45
2022-12-28T06:05:38.433Z,1006.44
2022-12-28T06:06:38.452Z,1006.36
2022-12-28T06:07:38.410Z,1006.42
2022-12-28T06:08:38.426Z,1006.45
2022-12-28T06:09:39.337Z,1006.41
2022-12-28T06:10:38.356Z,1006.47
2022-12-28T06:11:38.398Z,1006.33
2022-12-28T06:12:38.348Z,1006.37
2022-12-28T06:13:38.333Z,1006.33
2022-12-28T06:14:38.335Z,1006.35
2022-12-28T06:15:38.437Z,1006.26
2022-12-28T06:16:38.391Z,1006.35
2022-12-28T06:17:38.285Z,1006.24
2022-12-28T06:18:38.288Z,1006.26
2022-12-28T06:19:38.268Z,1006.27
2022-12-28T06:20:38.240Z,1006.28
2022-12-28T06:21:38.275Z,1006.22
2022-12-28T06:22:38.275Z,1006.23
2022-12-28T06:23:38.197Z,1006.25
2022-12-28T06:24:38.317Z,1006.22
2022-12-28T06:25:39.321Z,1006.24
2022-12-28T06:26:38.232Z,1006.21
2022-12-28T06:27:39.125Z,1006.20
2022-12-28T06:28:38.181Z,1006.28
2022-12-28T06:29:38.096Z,1006.23
2022-12-28T06:30:38.099Z,1006.22
2022-12-28T06:31:38.214Z,1006.19
2022-12-28T06:32:38.089Z,1006.21
2022-12-28T06:33:38.155Z,1006.25
2022-12-28T06:34:38.118Z,1006.17
2022-12-28T06:35:38.084Z,1006.08
2022-12-28T06:36:38.012Z,1006.13
2022-12-28T06:37:38.010Z,1006.21
2022-12-28T06:38:38.010Z,1006.17
2022-12-28T06:39:39.483Z,1006.17
2022-12-28T06:41:11.527Z,1006.20
2022-12-28T06:41:38.959Z,1006.15
2022-12-28T06:42:38.441Z,1006.11
2022-12-28T06:43:38.162Z,1006.14
2022-12-28T06:44:42.530Z,1006.07
2022-12-28T06:45:40.021Z,1006.10
2022-12-28T06:46:38.041Z,1006.10
2022-12-28T06:47:37.889Z,1006.12
2022-12-28T06:48:37.865Z,1006.07
2022-12-28T06:49:37.858Z,1006.08
2022-12-28T06:50:40.175Z,1005.99
2022-12-28T06:51:37.829Z,1006.03
2022-12-28T06:52:37.822Z,1006.04
2022-12-28T06:53:37.820Z,1005.99
2022-12-28T06:54:37.843Z,1006.01
2022-12-28T06:55:37.858Z,1005.99
2022-12-28T06:56:38.307Z,1005.99
2022-12-28T06:57:37.776Z,1005.96
2022-12-28T06:58:37.747Z,1005.92
2022-12-28T06:59:37.767Z,1005.96
2022-12-28T07:00:37.714Z,1005.96
2022-12-28T07:01:37.992Z,1005.98
2022-12-28T07:02:37.819Z,1005.97
2022-12-28T07:03:37.681Z,1005.93
2022-12-28T07:04:37.683Z,1005.96
2022-12-28T07:05:37.641Z,1005.94
2022-12-28T07:06:37.708Z,1005.85
2022-12-28T07:07:37.621Z,1005.82
2022-12-28T07:08:37.645Z,1005.85
2022-12-28T07:09:37.633Z,1005.79
2022-12-28T07:10:37.621Z,1005.82
2022-12-28T07:11:37.651Z,1005.83
2022-12-28T07:12:37.592Z,1005.82
2022-12-28T07:13:37.618Z,1005.74
2022-12-28T07:14:37.542Z,1005.71
2022-12-28T07:15:37.571Z,1005.74
2022-12-28T07:17:07.733Z,1005.74
2022-12-28T07:18:07.692Z,1005.73
2022-12-28T07:19:07.665Z,1005.72
2022-12-28T07:20:07.676Z,1005.76
2022-12-28T07:21:07.650Z,1005.73
2022-12-28T07:22:07.658Z,1005.71
2022-12-28T07:23:07.643Z,1005.78
2022-12-28T07:24:07.619Z,1005.81
2022-12-28T07:25:07.602Z,1005.78
2022-12-28T07:26:07.586Z,1005.77
2022-12-28T07:27:07.612Z,1005.83
2022-12-28T07:28:07.568Z,1005.78
2022-12-28T07:29:07.581Z,1005.71
2022-12-28T07:30:07.545Z,1005.69
2022-12-28T07:31:07.568Z,1005.67
2022-12-28T07:32:07.524Z,1005.67
2022-12-28T07:33:08.094Z,1005.62
2022-12-28T07:34:07.473Z,1005.63
2022-12-28T07:35:07.488Z,1005.69
2022-12-28T07:36:07.439Z,1005.63
2022-12-28T07:37:08.452Z,1005.65
2022-12-28T07:38:07.514Z,1005.65
2022-12-28T07:39:07.486Z,1005.63
2022-12-28T07:40:07.447Z,1005.65
2022-12-28T07:41:07.401Z,1005.69
2022-12-28T07:42:07.395Z,1005.63
2022-12-28T07:43:07.357Z,1005.60
2022-12-28T07:44:07.400Z,1005.60
2022-12-28T07:45:07.345Z,1005.62
2022-12-28T07:46:07.422Z,1005.63
2022-12-28T07:47:07.366Z,1005.64
2022-12-28T07:48:07.323Z,1005.64
2022-12-28T07:49:08.244Z,1005.67
2022-12-28T07:50:08.124Z,1005.58
2022-12-28T07:51:07.268Z,1005.58
2022-12-28T07:52:07.318Z,1005.57
2022-12-28T07:53:07.266Z,1005.60
2022-12-28T07:54:07.233Z,1005.51
2022-12-28T07:55:07.209Z,1005.57
2022-12-28T07:56:07.193Z,1005.61
2022-12-28T07:57:07.247Z,1005.61
2022-12-28T07:58:08.389Z,1005.63
2022-12-28T07:59:07.184Z,1005.63
2022-12-28T08:00:07.163Z,1005.62
2022-12-28T08:01:07.283Z,1005.68
2022-12-28T08:02:07.239Z,1005.69
2022-12-28T08:03:07.743Z,1005.65
2022-12-28T08:04:07.171Z,1005.70
2022-12-28T08:05:07.097Z,1005.69
2022-12-28T08:06:07.115Z,1005.68
2022-12-28T08:07:07.068Z,1005.65
2022-12-28T08:08:07.118Z,1005.68
2022-12-28T08:09:07.073Z,1005.61
2022-12-28T08:10:07.046Z,1005.57
2022-12-28T08:11:07.010Z,1005.54
2022-12-28T08:12:07.049Z,1005.54
2022-12-28T08:13:06.977Z,1005.52
2022-12-28T08:14:07.004Z,1005.59
2022-12-28T08:15:06.978Z,1005.56
2022-12-28T08:16:07.169Z,1005.51
2022-12-28T08:17:06.937Z,1005.49
2022-12-28T08:18:07.347Z,1005.59
2022-12-28T08:19:06.988Z,1005.57
2022-12-28T08:20:06.939Z,1005.59
2022-12-28T08:21:06.909Z,1005.61
2022-12-28T08:22:06.878Z,1005.57
2022-12-28T08:23:06.911Z,1005.58
2022-12-28T08:24:06.848Z,1005.61
2022-12-28T08:25:06.889Z,1005.57
2022-12-28T08:26:06.868Z,1005.56
2022-12-28T08:27:06.842Z,1005.59
2022-12-28T08:28:07.046Z,1005.56
2022-12-28T08:29:06.859Z,1005.49
2022-12-28T08:30:06.862Z,1005.44
2022-12-28T08:31:06.842Z,1005.52
2022-12-28T08:32:06.755Z,1005.52
2022-12-28T08:33:06.754Z,1005.47
2022-12-28T08:34:06.721Z,1005.49
2022-12-28T08:35:06.721Z,1005.49
2022-12-28T08:36:06.720Z,1005.47
2022-12-28T08:37:06.691Z,1005.52
2022-12-28T08:38:06.692Z,1005.49
2022-12-28T08:39:06.662Z,1005.46
2022-12-28T08:40:06.663Z,1005.49
2022-12-28T08:41:06.644Z,1005.48
2022-12-28T08:42:06.674Z,1005.49
2022-12-28T08:43:06.612Z,1005.47
2022-12-28T08:44:06.599Z,1005.43
2022-12-28T08:45:06.573Z,1005.50
2022-12-28T08:46:06.726Z,1005.51
2022-12-28T08:47:06.661Z,1005.40
2022-12-28T08:48:06.570Z,1005.40
2022-12-28T08:49:06.550Z,1005.39
2022-12-28T08:50:06.533Z,1005.41
2022-12-28T08:51:06.500Z,1005.40
2022-12-28T08:52:06.520Z,1005.44
2022-12-28T08:53:07.705Z,1005.44
2022-12-28T08:54:06.471Z,1005.47
2022-12-28T08:55:06.475Z,1005.47
2022-12-28T08:56:07.077Z,1005.49
2022-12-28T08:57:06.498Z,1005.49
2022-12-28T08:58:06.415Z,1005.52
2022-12-28T08:59:06.408Z,1005.49
2022-12-28T09:00:06.400Z,1005.55
2022-12-28T09:01:06.496Z,1005.61
2022-12-28T09:02:06.524Z,1005.57
2022-12-28T09:03:06.435Z,1005.55
2022-12-28T09:04:06.365Z,1005.59
2022-12-28T09:05:06.349Z,1005.53
2022-12-28T09:06:07.481Z,1005.52
2022-12-28T09:07:06.314Z,1005.57
2022-12-28T09:08:06.439Z,1005.56
2022-12-28T09:09:07.059Z,1005.60
2022-12-28T09:10:06.310Z,1005.59
2022-12-28T09:11:06.288Z,1005.62
2022-12-28T09:12:06.219Z,1005.57
2022-12-28T09:13:06.231Z,1005.53
2022-12-28T09:14:06.239Z,1005.58
2022-12-28T09:15:06.180Z,1005.56
2022-12-28T09:16:06.313Z,1005.48
2022-12-28T09:17:06.174Z,1005.52
2022-12-28T09:18:06.167Z,1005.56
2022-12-28T09:19:06.205Z,1005.59
2022-12-28T09:20:06.138Z,1005.60
2022-12-28T09:21:06.126Z,1005.62
2022-12-28T09:22:06.126Z,1005.63
2022-12-28T09:23:06.145Z,1005.60
2022-12-28T09:24:06.106Z,1005.61
2022-12-28T09:25:06.110Z,1005.61
2022-12-28T09:26:06.085Z,1005.61
2022-12-28T09:27:06.070Z,1005.61
2022-12-28T09:28:06.041Z,1005.61
2022-12-28T09:29:06.051Z,1005.60
2022-12-28T09:30:06.026Z,1005.57
2022-12-28T09:31:07.170Z,1005.58
2022-12-28T09:32:07.043Z,1005.65
2022-12-28T09:33:06.048Z,1005.61
2022-12-28T09:34:34.892Z,1005.62
2022-12-28T09:35:06.957Z,1005.66
2022-12-28T09:36:05.960Z,1005.57
2022-12-28T09:37:05.914Z,1005.57
2022-12-28T09:38:05.926Z,1005.59
2022-12-28T09:39:05.992Z,1005.48
2022-12-28T09:40:05.939Z,1005.56
2022-12-28T09:41:05.911Z,1005.54
2022-12-28T09:42:05.921Z,1005.43
2022-12-28T09:43:05.889Z,1005.60
2022-12-28T09:44:05.880Z,1005.53
2022-12-28T09:45:05.852Z,1005.55
2022-12-28T09:46:05.919Z,1005.54
2022-12-28T09:47:05.777Z,1005.55
2022-12-28T09:48:05.822Z,1005.51
2022-12-28T09:49:05.752Z,1005.57
2022-12-28T09:50:05.791Z,1005.51
2022-12-28T09:51:05.754Z,1005.49
2022-12-28T09:52:05.753Z,1005.51
2022-12-28T09:53:05.705Z,1005.46
2022-12-28T09:54:05.693Z,1005.53
2022-12-28T09:55:05.702Z,1005.46
2022-12-28T09:56:05.695Z,1005.51
2022-12-28T09:57:06.674Z,1005.49
2022-12-28T09:58:05.633Z,1005.49
2022-12-28T09:59:05.621Z,1005.43
2022-12-28T10:00:05.674Z,1005.40
2022-12-28T10:01:05.727Z,1005.37
2022-12-28T10:02:05.705Z,1005.39
2022-12-28T10:03:05.614Z,1005.40
2022-12-28T10:04:05.557Z,1005.42
2022-12-28T10:05:05.568Z,1005.40
2022-12-28T10:06:05.575Z,1005.44
2022-12-28T10:07:05.557Z,1005.38
2022-12-28T10:08:05.636Z,1005.39
2022-12-28T10:09:05.525Z,1005.40
2022-12-28T10:10:05.778Z,1005.40
2022-12-28T10:11:05.517Z,1005.42
2022-12-28T10:12:05.477Z,1005.43
2022-12-28T10:13:09.342Z,1005.44
2022-12-28T10:14:06.459Z,1005.39
2022-12-28T10:15:05.414Z,1005.43
2022-12-28T10:16:05.493Z,1005.47
2022-12-28T10:17:05.397Z,1005.49
2022-12-28T10:18:05.430Z,1005.44
2022-12-28T10:19:05.397Z,1005.44
2022-12-28T10:20:05.417Z,1005.48
2022-12-28T10:21:05.360Z,1005.44
2022-12-28T10:22:05.655Z,1005.47
2022-12-28T10:23:05.371Z,1005.47
2022-12-28T10:24:30.517Z,1005.49
2022-12-28T10:25:06.339Z,1005.44
2022-12-28T10:26:05.298Z,1005.45
2022-12-28T10:27:05.306Z,1005.45
2022-12-28T10:28:05.249Z,1005.42
2022-12-28T10:29:05.259Z,1005.45
2022-12-28T10:30:05.251Z,1005.37
2022-12-28T10:31:05.401Z,1005.34
2022-12-28T10:32:05.200Z,1005.36
2022-12-28T10:33:07.772Z,1005.38
2022-12-28T10:34:05.264Z,1005.37
2022-12-28T10:35:06.167Z,1005.40
2022-12-28T10:36:05.178Z,1005.30
2022-12-28T10:37:05.149Z,1005.30
2022-12-28T10:38:05.257Z,1005.31
2022-12-28T10:39:05.188Z,1005.23
2022-12-28T10:40:05.113Z,1005.24
2022-12-28T10:41:05.169Z,1005.25
2022-12-28T10:42:05.097Z,1005.26
2022-12-28T10:44:37.970Z,1005.05
2022-12-28T10:45:06.033Z,1005.03
2022-12-28T10:46:05.004Z,1005.08
2022-12-28T10:47:05.072Z,1005.09
2022-12-28T10:48:05.070Z,1005.15
2022-12-28T10:49:04.992Z,1005.10
2022-12-28T10:51:06.033Z,1005.08
2022-12-28T10:52:04.942Z,1005.14
2022-12-28T10:53:04.962Z,1005.07
2022-12-28T10:54:04.963Z,1005.04
2022-12-28T10:56:05.897Z,1004.94
2022-12-28T10:57:04.930Z,1005.04
2022-12-28T10:58:28.514Z,1004.94
2022-12-28T10:59:05.924Z,1005.00
2022-12-28T11:00:04.857Z,1004.84
2022-12-28T11:01:06.773Z,1004.95
2022-12-28T11:02:04.936Z,1004.94
2022-12-28T11:03:04.871Z,1005.06
2022-12-28T11:03:20.600Z,1005.09
2022-12-28T11:03:21.859Z,1005.04
2022-12-28T11:04:04.846Z,1004.93
2022-12-28T11:05:04.774Z,1005.02
2022-12-28T11:06:04.785Z,1004.92
2022-12-28T11:07:04.758Z,1004.95
2022-12-28T11:08:04.790Z,1004.97
2022-12-28T11:09:04.781Z,1004.96
2022-12-28T11:10:04.733Z,1005.02
2022-12-28T11:11:05.741Z,1004.94
2022-12-28T11:12:04.707Z,1004.95
2022-12-28T11:13:05.534Z,1004.92
2022-12-28T11:14:04.687Z,1004.96
2022-12-28T11:15:04.668Z,1004.90
2022-12-28T11:16:04.737Z,1004.89
2022-12-28T11:17:04.636Z,1004.87
2022-12-28T11:18:04.615Z,1004.85
2022-12-28T11:19:04.586Z,1004.83
2022-12-28T11:20:04.684Z,1004.87
2022-12-28T11:21:04.573Z,1004.90
2022-12-28T11:22:04.594Z,1004.83
2022-12-28T11:23:04.729Z,1004.86
2022-12-28T11:24:04.577Z,1004.77
2022-12-28T11:25:04.574Z,1004.90
2022-12-28T11:26:05.300Z,1004.81
2022-12-28T11:27:04.497Z,1004.85
2022-12-28T11:28:04.477Z,1004.83
2022-12-28T11:29:04.475Z,1004.82
2022-12-28T11:30:04.560Z,1004.85
2022-12-28T11:31:04.459Z,1004.81
2022-12-28T11:32:04.496Z,1004.82
2022-12-28T11:33:04.424Z,1004.84
2022-12-28T11:34:05.557Z,1004.76
2022-12-28T11:35:04.434Z,1004.78
2022-12-28T11:36:08.425Z,1004.77
2022-12-28T11:37:05.381Z,1004.82
2022-12-28T11:38:04.400Z,1004.76
2022-12-28T11:39:05.578Z,1004.80
2022-12-28T11:40:04.473Z,1004.81
2022-12-28T11:41:04.308Z,1004.72
2022-12-28T11:43:05.325Z,1004.77
2022-12-28T11:44:04.291Z,1004.76
2022-12-28T11:45:04.300Z,1004.69
2022-12-28T11:46:04.295Z,1004.74
2022-12-28T11:47:04.875Z,1004.74
2022-12-28T11:48:04.243Z,1004.73
2022-12-28T11:49:04.249Z,1004.82
2022-12-28T11:50:04.193Z,1004.75
2022-12-28T11:51:04.237Z,1004.80
2022-12-28T11:52:04.349Z,1004.67
2022-12-28T11:53:07.796Z,1004.59
2022-12-28T11:54:05.192Z,1004.60
2022-12-28T11:55:04.165Z,1004.67
2022-12-28T11:56:04.120Z,1004.60
2022-12-28T11:57:04.113Z,1004.62
2022-12-28T11:58:04.093Z,1004.63
2022-12-28T11:59:04.154Z,1004.60
2022-12-28T12:00:04.595Z,1004.67
2022-12-28T12:01:04.082Z,1004.60
2022-12-28T12:02:04.145Z,1004.58
2022-12-28T12:03:05.048Z,1004.62
2022-12-28T12:04:04.395Z,1004.67
2022-12-28T12:05:05.156Z,1004.60
2022-12-28T12:06:04.011Z,1004.64
2022-12-28T12:07:04.147Z,1004.59
2022-12-28T12:08:04.995Z,1004.71